createdAt,value
2022-09-05T00:00:58.077Z,2.30
2022-09-05T00:29:33.215Z,2.38
2022-09-05T00:32:29.410Z,2.47
2022-09-05T00:35:14.455Z,2.22
2022-09-05T00:37:47.657Z,2.30
2022-09-05T00:40:18.369Z,2.20
2022-09-05T00:42:49.829Z,3.33
2022-09-05T00:45:26.252Z,2.20
2022-09-05T00:48:08.809Z,2.00
2022-09-05T00:51:20.680Z,2.13
2022-09-05T00:59:24.298Z,2.83
2022-09-05T01:02:20.365Z,2.58
2022-09-05T01:04:53.632Z,3.13
2022-09-05T01:07:26.492Z,2.28
2022-09-05T01:10:07.328Z,4.00
2022-09-05T01:12:56.047Z,3.03
2022-09-05T01:15:35.013Z,2.65
2022-09-05T01:18:36.413Z,2.53
2022-09-05T01:21:09.215Z,2.92
2022-09-05T01:23:42.811Z,2.70
2022-09-05T01:26:50.754Z,2.80
2022-09-05T01:29:38.377Z,3.85
2022-09-05T01:32:21.246Z,2.30
2022-09-05T01:35:02.653Z,2.70
2022-09-05T01:37:42.424Z,2.55
2022-09-05T01:40:27.173Z,3.08
2022-09-05T01:43:31.607Z,3.03
2022-09-05T01:46:21.010Z,3.33
2022-09-05T01:57:12.943Z,2.70
2022-09-05T02:00:15.000Z,3.03
2022-09-05T02:06:27.715Z,2.70
2022-09-05T02:09:23.290Z,3.25
2022-09-05T02:11:55.185Z,3.65
2022-09-05T02:14:43.901Z,3.40
2022-09-05T02:17:23.671Z,3.35
2022-09-05T02:20:43.035Z,3.47
2022-09-05T02:24:00.450Z,3.17
2022-09-05T02:26:37.025Z,2.65
2022-09-05T02:29:28.934Z,3.17
2022-09-05T02:32:26.512Z,3.13
2022-09-05T02:35:14.044Z,3.33
2022-09-05T02:39:13.509Z,3.03
2022-09-05T02:45:06.088Z,3.17
2022-09-05T02:45:20.201Z,3.30
2022-09-05T02:46:56.935Z,3.60
2022-09-05T02:54:41.544Z,3.33
2022-09-05T02:57:34.408Z,2.85
2022-09-05T02:57:39.947Z,3.80
2022-09-05T02:59:09.482Z,3.90
2022-09-05T03:01:51.434Z,3.65
2022-09-05T03:04:50.634Z,3.35
2022-09-05T03:07:39.153Z,3.85
2022-09-05T03:10:28.237Z,4.85
2022-09-05T03:13:30.996Z,4.00
2022-09-05T03:16:22.699Z,3.90
2022-09-05T07:11:17.382Z,4.13
2022-09-05T07:13:56.327Z,3.53
2022-09-05T07:16:36.995Z,3.53
2022-09-05T07:19:29.344Z,4.18
2022-09-05T07:22:47.238Z,4.45
2022-09-05T07:25:26.400Z,3.60
2022-09-05T07:28:29.767Z,3.30
2022-09-05T07:31:14.126Z,3.85
2022-09-05T07:34:20.584Z,4.00
2022-09-05T07:37:15.604Z,2.75
2022-09-05T07:39:48.846Z,3.42
2022-09-05T07:42:23.194Z,2.92
2022-09-05T07:45:02.547Z,2.53
2022-09-05T07:47:33.553Z,2.83
2022-09-05T07:52:47.411Z,2.50
2022-09-05T07:56:47.923Z,2.30
2022-09-05T07:56:49.253Z,2.50
2022-09-05T07:58:41.239Z,3.22
2022-09-05T08:01:13.267Z,2.45
2022-09-05T08:03:42.647Z,2.30
2022-09-05T08:07:46.773Z,3.85
2022-09-05T08:10:06.092Z,2.63
2022-09-05T08:12:28.048Z,2.70
2022-09-05T08:15:14.123Z,2.53
2022-09-05T08:18:01.817Z,2.00
2022-09-05T08:20:43.308Z,2.70
2022-09-05T08:23:19.226Z,2.03
2022-09-05T08:26:20.973Z,2.10
2022-09-05T08:28:52.897Z,1.98
2022-09-05T08:31:43.220Z,2.40
2022-09-05T08:34:24.855Z,2.00
2022-09-05T08:37:12.438Z,3.42
2022-09-05T08:39:45.879Z,2.33
2022-09-05T08:42:40.222Z,2.15
2022-09-05T08:46:39.614Z,2.10
2022-09-05T08:48:48.827Z,1.70
2022-09-05T08:51:24.887Z,1.70
2022-09-05T08:54:20.031Z,1.90
2022-09-05T08:57:22.402Z,1.77
2022-09-05T09:00:20.766Z,1.80
2022-09-05T09:03:04.393Z,1.75
2022-09-05T09:06:11.827Z,2.10
2022-09-05T09:11:37.193Z,2.00
2022-09-05T09:14:38.008Z,1.88
2022-09-05T09:17:58.854Z,2.00
2022-09-05T09:20:47.731Z,1.75
2022-09-05T09:23:33.143Z,1.50
2022-09-05T09:26:17.255Z,1.70
2022-09-05T09:29:04.275Z,2.05
2022-09-05T09:31:40.333Z,2.00
2022-09-05T09:34:32.999Z,2.03
2022-09-05T09:37:21.785Z,1.95
2022-09-05T09:40:17.461Z,2.28
2022-09-05T09:42:57.492Z,1.63
2022-09-05T09:45:53.158Z,1.55
2022-09-05T09:48:41.872Z,1.98
2022-09-05T09:51:14.427Z,1.35
2022-09-05T09:53:59.870Z,1.73
2022-09-05T09:56:50.164Z,1.20
2022-09-05T09:59:24.412Z,1.40
2022-09-05T10:03:36.318Z,1.50
2022-09-05T10:10:54.452Z,1.90
2022-09-05T10:11:07.995Z,2.78
2022-09-05T10:12:36.562Z,2.10
2022-09-05T10:15:30.761Z,0.98
2022-09-05T10:18:06.063Z,1.35
2022-09-05T10:21:17.876Z,1.60
2022-09-05T10:24:15.338Z,1.38
2022-09-05T10:27:10.499Z,1.17
2022-09-05T10:29:53.046Z,2.00
2022-09-05T10:35:04.456Z,1.42
2022-09-05T10:35:34.914Z,1.48
2022-09-05T10:38:10.588Z,1.48
2022-09-05T10:41:20.339Z,1.30
2022-09-05T10:43:39.596Z,1.10
2022-09-05T10:46:48.956Z,1.10
2022-09-05T10:49:11.021Z,1.38
2022-09-05T10:51:52.007Z,1.20
2022-09-05T10:54:45.178Z,2.45
2022-09-05T10:57:35.731Z,1.17
2022-09-05T11:02:20.635Z,1.50
2022-09-05T11:02:58.440Z,0.85
2022-09-05T11:05:38.120Z,1.10
2022-09-05T11:08:09.813Z,1.42
2022-09-05T11:10:52.075Z,1.65
2022-09-05T11:13:47.316Z,1.88
2022-09-05T11:16:40.346Z,1.30
2022-09-05T11:19:35.161Z,1.23
2022-09-05T11:22:22.608Z,1.15
2022-09-05T11:25:03.278Z,1.20
2022-09-05T11:27:37.706Z,1.33
2022-09-05T11:30:28.718Z,1.25
2022-09-05T11:37:27.356Z,1.20
2022-09-05T11:39:52.703Z,1.00
2022-09-05T11:40:08.726Z,1.60
2022-09-05T11:42:06.412Z,1.45
2022-09-05T11:44:44.271Z,2.70
2022-09-05T11:47:44.660Z,0.90
2022-09-05T11:50:34.858Z,0.98
2022-09-05T11:53:10.443Z,1.60
2022-09-05T11:55:49.556Z,2.97
2022-09-05T11:58:44.659Z,1.38
2022-09-05T12:01:44.123Z,1.15
2022-09-05T12:04:39.528Z,1.33
2022-09-05T12:07:37.401Z,1.35
2022-09-05T12:10:10.120Z,0.70
2022-09-05T12:13:07.794Z,1.42
2022-09-05T12:15:38.630Z,1.02
2022-09-05T12:18:27.480Z,1.67
2022-09-05T12:21:01.426Z,1.25
2022-09-05T12:24:13.638Z,1.50
2022-09-05T12:27:40.932Z,1.38
2022-09-05T12:29:47.033Z,1.42
2022-09-05T12:35:19.743Z,1.77
2022-09-05T12:36:06.805Z,1.02
2022-09-05T12:40:16.613Z,1.38
2022-09-05T12:41:44.508Z,0.80
2022-09-05T12:44:44.285Z,1.75
2022-09-05T12:47:19.038Z,1.63
2022-09-05T12:50:14.837Z,2.15
2022-09-05T12:52:50.735Z,1.45
2022-09-05T12:55:17.474Z,1.30
2022-09-05T13:03:02.854Z,1.40
2022-09-05T13:03:12.927Z,2.42
2022-09-05T13:03:32.081Z,1.27
2022-09-05T13:06:02.581Z,1.73
2022-09-05T13:08:44.199Z,1.67
2022-09-05T13:14:48.634Z,1.58
2022-09-05T13:14:55.287Z,1.35
2022-09-05T13:17:00.324Z,1.23
2022-09-05T13:19:40.131Z,1.23
2022-09-05T13:22:10.573Z,1.10
2022-09-05T13:24:41.983Z,1.00
2022-09-05T13:27:08.762Z,1.05
2022-09-05T13:31:13.774Z,1.02
2022-09-05T13:38:02.581Z,0.95
2022-09-05T13:38:10.558Z,1.58
2022-09-05T13:38:52.540Z,1.30
2022-09-05T13:41:30.490Z,2.15
2022-09-05T13:44:26.614Z,1.50
2022-09-05T13:47:09.054Z,1.70
2022-09-05T13:49:52.580Z,1.95
2022-09-05T13:52:34.877Z,1.63
2022-09-05T13:55:38.127Z,1.10
2022-09-05T13:58:10.767Z,1.83
2022-09-05T14:00:40.309Z,1.42
2022-09-05T14:03:44.436Z,1.60
2022-09-05T14:06:46.216Z,1.10
2022-09-05T14:12:05.783Z,1.13
2022-09-05T14:17:51.052Z,1.92
2022-09-05T14:20:37.477Z,1.52
2022-09-05T14:23:10.521Z,1.77
2022-09-05T14:25:44.462Z,2.58
2022-09-05T14:28:18.840Z,1.98
2022-09-05T14:33:36.910Z,1.70
2022-09-05T14:37:54.323Z,2.55
2022-09-05T14:38:00.874Z,2.00
2022-09-05T14:40:30.340Z,1.75
2022-09-05T14:43:08.377Z,1.70
2022-09-05T14:45:52.076Z,2.85
2022-09-05T14:48:50.330Z,1.88
2022-09-05T14:51:35.111Z,2.35
2022-09-05T14:54:11.759Z,1.98
2022-09-05T14:58:05.844Z,2.80
2022-09-05T15:02:42.231Z,2.33
2022-09-05T15:03:02.032Z,3.20
2022-09-05T15:05:31.286Z,2.35
2022-09-05T15:08:39.575Z,2.05
2022-09-05T15:12:25.203Z,2.58
2022-09-05T15:14:03.625Z,1.80
2022-09-05T15:16:34.730Z,1.70
2022-09-05T15:19:01.726Z,1.50
2022-09-05T15:21:38.236Z,1.58
2022-09-05T15:24:23.980Z,1.40
2022-09-05T15:26:56.456Z,2.53
2022-09-05T15:29:34.452Z,1.98
2022-09-05T15:32:21.693Z,1.13
2022-09-05T15:34:54.538Z,1.52
2022-09-05T15:37:38.782Z,1.48
2022-09-05T15:40:22.645Z,1.35
2022-09-05T15:43:02.634Z,1.95
2022-09-05T15:45:37.580Z,1.38
2022-09-05T15:48:18.285Z,1.45
2022-09-05T15:50:51.481Z,1.42
2022-09-05T15:53:26.128Z,1.35
2022-09-05T15:55:54.854Z,1.20
2022-09-05T15:58:28.456Z,1.27
2022-09-05T16:01:30.608Z,1.58
2022-09-05T16:09:58.189Z,2.00
2022-09-05T16:10:36.594Z,1.40
2022-09-05T16:10:45.159Z,1.40
2022-09-05T16:12:44.816Z,2.65
2022-09-05T16:18:42.676Z,1.60
2022-09-05T16:23:13.619Z,1.63
2022-09-05T16:23:26.557Z,1.40
2022-09-05T16:24:02.469Z,1.77
2022-09-05T16:26:42.063Z,1.58
2022-09-05T16:29:26.739Z,1.80
2022-09-05T16:32:06.246Z,1.35
2022-09-05T16:35:01.857Z,2.10
2022-09-05T16:37:43.467Z,1.98
2022-09-05T16:40:28.660Z,1.58
2022-09-05T16:43:00.090Z,1.70
2022-09-05T16:45:33.283Z,1.63
2022-09-05T16:48:05.401Z,1.38
2022-09-05T16:50:50.151Z,1.50
2022-09-05T16:53:47.412Z,1.73
2022-09-05T16:59:08.733Z,1.73
2022-09-05T17:01:41.793Z,1.55
2022-09-05T17:04:20.691Z,2.15
2022-09-05T17:07:03.676Z,2.25
2022-09-05T17:09:36.546Z,1.98
2022-09-05T17:12:26.590Z,1.60
2022-09-05T17:15:14.974Z,3.22
2022-09-05T17:18:20.090Z,2.85
2022-09-05T17:20:37.111Z,2.05
2022-09-05T17:29:15.352Z,2.65
2022-09-05T17:29:41.333Z,2.78
2022-09-05T17:31:27.716Z,2.38
2022-09-05T17:32:31.814Z,3.03
2022-09-05T17:35:03.669Z,2.53
2022-09-05T17:38:15.939Z,2.53
2022-09-05T17:41:08.462Z,2.88
2022-09-05T17:44:00.550Z,2.13
2022-09-05T17:46:34.786Z,2.63
2022-09-05T17:49:19.843Z,2.92
2022-09-05T17:52:20.646Z,3.50
2022-09-05T17:54:54.146Z,3.30
2022-09-05T17:57:27.864Z,3.42
2022-09-05T18:00:12.128Z,2.67
2022-09-05T18:02:57.068Z,2.67
2022-09-05T18:06:02.463Z,3.28
2022-09-05T18:08:56.370Z,2.25
2022-09-05T18:11:30.459Z,2.90
2022-09-05T18:14:24.800Z,2.42
2022-09-05T18:17:35.903Z,4.40
2022-09-05T18:19:57.806Z,2.58
2022-09-05T18:23:37.033Z,2.53
2022-09-05T18:26:18.498Z,2.65
2022-09-05T18:32:40.743Z,3.22
2022-09-05T18:35:27.996Z,2.83
2022-09-05T18:38:18.294Z,2.67
2022-09-05T18:41:23.301Z,3.65
2022-09-05T18:44:13.807Z,2.72
2022-09-05T18:46:47.839Z,3.15
2022-09-05T18:50:24.551Z,3.55
2022-09-05T18:52:33.849Z,2.72
2022-09-05T18:56:09.902Z,2.60
2022-09-05T18:58:07.057Z,2.80
2022-09-05T19:00:44.454Z,3.30
2022-09-05T19:03:31.279Z,4.68
2022-09-05T19:06:36.046Z,2.83
2022-09-05T19:09:02.971Z,3.28
2022-09-05T19:11:52.659Z,2.53
2022-09-05T19:15:08.937Z,2.60
2022-09-05T19:17:46.852Z,2.53
2022-09-05T19:20:32.711Z,2.75
2022-09-05T19:23:12.341Z,2.35
2022-09-05T19:25:45.284Z,2.60
2022-09-05T19:35:33.282Z,2.65
2022-09-05T19:37:13.239Z,3.05
2022-09-05T19:37:15.392Z,2.47
2022-09-05T19:46:19.007Z,2.40
2022-09-05T19:47:42.234Z,2.80
2022-09-05T19:47:55.535Z,2.25
2022-09-05T19:50:57.948Z,2.40
2022-09-05T19:53:25.206Z,3.08
2022-09-05T19:55:54.080Z,2.45
2022-09-05T19:58:23.095Z,2.28
2022-09-05T20:01:03.052Z,2.90
2022-09-05T20:03:38.721Z,3.10
2022-09-05T20:06:29.320Z,2.28
2022-09-05T20:09:30.592Z,2.30
2022-09-05T20:12:00.799Z,1.98
2022-09-05T20:14:35.947Z,2.53
2022-09-05T20:17:27.228Z,2.58
2022-09-05T20:20:23.052Z,1.90
2022-09-05T20:22:59.423Z,0.60
2022-09-05T20:25:43.963Z,0.80
2022-09-05T20:28:16.329Z,0.30
2022-09-05T20:30:55.881Z,0.70
2022-09-05T20:33:54.372Z,0.60
2022-09-05T20:43:11.573Z,0.40
2022-09-05T20:43:23.467Z,0.40
2022-09-05T20:43:32.030Z,0.95
2022-09-05T20:45:45.547Z,0.30
2022-09-05T20:54:09.582Z,0.85
2022-09-05T20:54:19.064Z,0.50
2022-09-05T20:54:19.424Z,0.40
2022-09-05T20:56:48.884Z,0.60
2022-09-05T20:59:37.467Z,0.70
2022-09-05T21:02:07.423Z,1.50
2022-09-05T21:04:42.617Z,0.80
2022-09-05T21:07:24.956Z,0.88
2022-09-05T21:09:59.288Z,0.60
2022-09-05T21:12:46.736Z,1.08
2022-09-05T21:15:52.801Z,0.32
2022-09-05T21:18:23.787Z,1.50
2022-09-05T21:21:28.157Z,0.60
2022-09-05T21:24:18.100Z,0.47
2022-09-05T21:26:51.727Z,0.50
2022-09-05T21:29:32.566Z,0.70
2022-09-05T21:32:02.044Z,0.60
2022-09-05T21:37:34.317Z,1.15
2022-09-05T21:40:01.386Z,0.82
2022-09-05T21:45:46.013Z,1.00
2022-09-05T21:47:43.101Z,0.82
2022-09-05T21:48:18.372Z,1.02
2022-09-05T21:50:54.881Z,1.13
2022-09-05T21:58:48.552Z,1.10
2022-09-05T22:04:12.188Z,1.00
2022-09-05T22:06:39.777Z,1.13
2022-09-05T22:09:13.693Z,1.40
2022-09-05T22:11:44.150Z,0.95
2022-09-05T22:17:20.749Z,1.63
2022-09-05T22:23:12.796Z,1.77
2022-09-05T22:28:27.350Z,1.63
2022-09-05T22:31:09.691Z,1.95
2022-09-05T22:34:10.375Z,1.50
2022-09-05T22:36:46.446Z,1.10
2022-09-05T22:39:13.197Z,1.20
2022-09-05T22:41:47.181Z,0.98
2022-09-05T22:47:25.177Z,0.77
2022-09-05T22:50:27.057Z,0.80
2022-09-05T22:57:24.448Z,0.88
2022-09-05T22:59:57.229Z,0.80
2022-09-05T23:02:36.176Z,0.57
2022-09-05T23:13:44.720Z,0.85
2022-09-05T23:18:22.610Z,0.52
2022-09-05T23:20:02.463Z,0.50
2022-09-05T23:26:16.778Z,0.47
2022-09-05T23:28:44.408Z,0.68
2022-09-05T23:31:12.354Z,0.52
2022-09-05T23:33:41.905Z,0.80
2022-09-05T23:36:14.227Z,0.50
2022-09-05T23:38:45.380Z,0.65
2022-09-05T23:41:14.605Z,0.65
2022-09-05T23:43:53.705Z,0.52
2022-09-05T23:46:22.267Z,0.60
2022-09-05T23:48:56.641Z,0.88
2022-09-05T23:51:23.396Z,0.65
2022-09-05T23:53:50.411Z,0.70
2022-09-05T23:56:17.159Z,0.57
2022-09-05T23:58:44.649Z,0.40
